Terminal Aerodrome Forecast
Issued by NWS

Home | Current Version | Previous Version | Text Only | Print | Product List | Glossary Off
Versions: 1 2 3 4 5 6 7 8 9 10 11 12 13 14 15 16 17 18

000
FTUS42 KMHX 252340
TAFOAJ
TAF
KOAJ 252340Z 2600/2624 VRB03KT P6SM SCT025 OVC100
     FM260800 00000KT 2SM BR BKN007 OVC025
     FM261200 03005KT P6SM SCT007 BKN025
     FM261600 12007KT P6SM VCSH SCT025 BKN040
      AMD LTD TO CLD VIS AND WIND=

USA.gov is the U.S. government's official web portal to all federal, state and local government web resources and services.